createdAt,value
2019-03-18T00:03:54.297Z,99485.88
2019-03-18T00:08:57.755Z,99482.15
2019-03-18T00:14:01.207Z,99482.15
2019-03-18T00:19:04.668Z,99488.47
2019-03-18T00:24:08.120Z,99477.98
2019-03-18T00:29:11.575Z,99496.45
2019-03-18T00:34:15.115Z,99537.45
2019-03-18T00:39:18.567Z,99538.66
2019-03-18T00:44:22.020Z,99532.36
2019-03-18T00:49:25.472Z,99540.69
2019-03-18T00:54:28.927Z,99539.30
2019-03-18T00:59:32.379Z,99542.07
2019-03-18T01:04:35.831Z,99559.32
2019-03-18T01:09:39.283Z,99557.16
2019-03-18T01:14:42.742Z,99555.16
2019-03-18T01:19:46.202Z,99556.38
2019-03-18T01:24:49.652Z,99558.36
2019-03-18T01:29:53.117Z,99574.22
2019-03-18T01:34:57.052Z,99566.34
2019-03-18T01:40:00.569Z,99569.45
2019-03-18T01:45:05.087Z,99577.61
2019-03-18T01:50:15.231Z,99566.94
2019-03-18T01:55:18.700Z,99575.44
2019-03-18T02:00:22.168Z,99563.56
2019-03-18T02:05:25.624Z,99570.32
2019-03-18T02:10:29.083Z,99576.04
2019-03-18T02:15:32.541Z,99582.20
2019-03-18T02:20:36.000Z,99603.61
2019-03-18T02:25:39.459Z,99604.99
2019-03-18T02:30:42.923Z,99603.42
2019-03-18T02:35:46.380Z,99589.56
2019-03-18T02:40:49.834Z,99602.64
2019-03-18T02:46:08.920Z,99619.28
2019-03-18T02:50:58.475Z,99629.00
2019-03-18T02:56:01.927Z,99622.70
2019-03-18T03:01:05.379Z,99622.70
2019-03-18T03:06:08.833Z,99622.52
2019-03-18T03:11:12.290Z,99625.30
2019-03-18T03:16:26.758Z,99629.63
2019-03-18T03:21:20.933Z,99646.09
2019-03-18T03:26:24.373Z,99644.53
2019-03-18T03:31:27.829Z,99646.52
2019-03-18T03:36:31.275Z,99657.02
2019-03-18T03:41:35.074Z,99646.34
2019-03-18T03:46:43.529Z,99661.60
2019-03-18T03:51:43.738Z,99671.30
2019-03-18T03:56:47.281Z,99692.11
2019-03-18T04:01:50.771Z,99693.31
2019-03-18T04:06:54.378Z,99699.04
2019-03-18T04:11:57.856Z,99704.59
2019-03-18T04:17:02.666Z,99701.03
2019-03-18T04:22:06.569Z,99691.33
2019-03-18T04:27:10.044Z,99695.48
2019-03-18T04:32:13.511Z,99702.24
2019-03-18T04:37:16.993Z,99704.84
2019-03-18T04:42:20.462Z,99696.52
2019-03-18T04:47:23.931Z,99694.95
2019-03-18T04:52:27.399Z,99688.91
2019-03-18T04:57:30.873Z,99693.24
2019-03-18T05:02:34.344Z,99700.78
2019-03-18T05:07:37.816Z,99702.77
2019-03-18T05:12:41.295Z,99701.63
2019-03-18T05:17:44.764Z,99691.75
2019-03-18T05:22:48.236Z,99691.75
2019-03-18T05:27:51.706Z,99700.85
2019-03-18T05:32:55.172Z,99697.75
2019-03-18T05:37:58.648Z,99697.75
2019-03-18T05:43:02.144Z,99714.22
2019-03-18T05:48:05.592Z,99725.91
2019-03-18T05:53:09.068Z,99730.50
2019-03-18T05:58:12.531Z,99721.58
2019-03-18T06:03:16.002Z,99723.56
2019-03-18T06:08:19.475Z,99731.53
2019-03-18T06:13:22.950Z,99739.42
2019-03-18T06:18:26.415Z,99738.28
2019-03-18T06:23:29.891Z,99744.00
2019-03-18T06:28:33.368Z,99736.74
2019-03-18T06:33:36.841Z,99746.59
2019-03-18T06:38:40.314Z,99767.39
2019-03-18T06:43:43.784Z,99774.32
2019-03-18T06:48:47.262Z,99765.40
2019-03-18T06:53:50.734Z,99770.77
2019-03-18T06:58:54.372Z,99779.09
2019-03-18T07:03:57.829Z,99768.95
2019-03-18T07:09:01.289Z,99771.55
2019-03-18T07:14:04.737Z,99764.47
2019-03-18T07:19:08.193Z,99764.13
2019-03-18T07:24:12.467Z,99765.06
2019-03-18T07:29:15.923Z,99775.91
2019-03-18T07:34:19.382Z,99783.80
2019-03-18T07:39:22.835Z,99791.58
2019-03-18T07:44:26.287Z,99790.97
2019-03-18T07:49:29.756Z,99803.13
2019-03-18T07:54:33.380Z,99815.92
2019-03-18T07:59:36.946Z,99808.27
2019-03-18T08:04:40.396Z,99809.93
2019-03-18T08:09:43.857Z,99816.86
2019-03-18T08:14:47.314Z,99837.92
2019-03-18T08:19:50.769Z,99846.98
2019-03-18T08:24:54.227Z,99850.06
2019-03-18T08:29:57.680Z,99870.60
2019-03-18T08:35:01.149Z,99881.80
2019-03-18T08:40:07.344Z,99889.28
2019-03-18T08:45:12.431Z,99891.68
2019-03-18T08:50:15.889Z,99884.20
2019-03-18T08:55:19.354Z,99893.87
2019-03-18T09:00:22.807Z,99896.90
2019-03-18T09:05:26.260Z,99892.63
2019-03-18T09:10:29.711Z,99902.22
2019-03-18T09:15:33.170Z,99903.90
2019-03-18T09:20:36.623Z,99914.93
2019-03-18T09:25:40.082Z,99921.95
2019-03-18T09:30:43.542Z,99929.85
2019-03-18T09:35:46.996Z,99931.61
2019-03-18T09:40:50.623Z,99942.00
2019-03-18T09:45:54.669Z,99943.16
2019-03-18T09:50:58.116Z,99950.19
2019-03-18T09:56:01.575Z,99958.86
2019-03-18T10:01:05.027Z,99952.31
2019-03-18T10:06:08.479Z,99955.59
2019-03-18T10:11:11.938Z,99949.83
2019-03-18T10:16:15.392Z,99958.92
2019-03-18T10:21:18.844Z,99955.47
2019-03-18T10:26:22.296Z,99951.50
2019-03-18T10:31:25.752Z,99954.64
2019-03-18T10:36:29.209Z,99949.62
2019-03-18T10:41:32.676Z,99964.44
2019-03-18T10:46:36.126Z,99968.59
2019-03-18T10:51:39.595Z,99977.09
2019-03-18T10:56:43.112Z,99981.06
2019-03-18T11:01:46.554Z,99984.72
2019-03-18T11:06:50.895Z,99988.47
2019-03-18T11:11:54.349Z,99987.63
2019-03-18T11:16:57.804Z,99990.16
2019-03-18T11:22:01.267Z,99983.86
2019-03-18T11:27:04.736Z,99987.18
2019-03-18T11:32:08.196Z,100001.59
2019-03-18T11:37:11.656Z,100008.70
2019-03-18T11:42:15.125Z,100000.30
2019-03-18T11:47:18.574Z,100001.67
2019-03-18T11:52:22.798Z,100006.16
2019-03-18T11:57:26.253Z,100014.75
2019-03-18T12:02:29.716Z,100009.12
2019-03-18T12:07:33.179Z,99999.78
2019-03-18T12:12:36.649Z,99992.84
2019-03-18T12:17:40.092Z,99983.14
2019-03-18T12:22:43.788Z,99993.97
2019-03-18T12:27:47.253Z,99994.59
2019-03-18T12:32:50.783Z,99985.05
2019-03-18T12:37:54.405Z,99991.19
2019-03-18T12:42:57.863Z,99988.00
2019-03-18T12:48:01.312Z,99990.77
2019-03-18T12:53:04.935Z,99991.19
2019-03-18T12:58:08.393Z,99998.25
2019-03-18T13:03:11.848Z,100002.23
2019-03-18T13:08:15.299Z,99990.72
2019-03-18T13:13:18.757Z,99987.25
2019-03-18T13:18:22.215Z,99995.34
2019-03-18T13:23:25.673Z,100003.05
2019-03-18T13:28:29.134Z,100009.72
2019-03-18T13:33:32.594Z,100007.13
2019-03-18T13:38:36.052Z,100011.66
2019-03-18T13:43:39.509Z,99995.02
2019-03-18T13:48:42.970Z,100009.84
2019-03-18T13:53:46.429Z,100008.70
2019-03-18T13:58:49.889Z,100027.33
2019-03-18T14:03:53.349Z,100033.30
2019-03-18T14:08:56.811Z,100032.69
2019-03-18T14:14:00.268Z,100031.16
2019-03-18T14:19:03.730Z,100036.70
2019-03-18T14:24:07.188Z,100027.14
2019-03-18T14:29:10.650Z,100028.53
2019-03-18T14:34:14.113Z,100038.00
2019-03-18T14:39:17.569Z,100050.48
2019-03-18T14:44:21.026Z,100056.39
2019-03-18T14:49:24.487Z,100051.63
2019-03-18T14:54:27.955Z,100053.26
2019-03-18T14:59:31.406Z,100058.20
2019-03-18T15:04:34.867Z,100047.80
2019-03-18T15:09:38.325Z,100079.05
2019-03-18T15:14:41.783Z,100126.88
2019-03-18T15:19:45.238Z,100132.25
2019-03-18T15:24:48.705Z,100112.47
2019-03-18T15:29:52.165Z,100107.70
2019-03-18T15:34:55.626Z,100111.63
2019-03-18T15:39:59.097Z,100105.06
2019-03-18T15:45:03.407Z,100108.17
2019-03-18T15:50:13.233Z,100117.55
2019-03-18T15:55:16.765Z,100125.27
2019-03-18T16:00:22.428Z,100128.37
2019-03-18T16:05:25.882Z,100125.45
2019-03-18T16:10:29.336Z,100128.98
2019-03-18T16:15:32.793Z,100138.08
2019-03-18T16:20:36.252Z,100140.07
2019-03-18T16:25:39.710Z,100147.79
2019-03-18T16:30:43.169Z,100151.02
2019-03-18T16:35:46.631Z,100144.08
2019-03-18T16:40:50.102Z,100147.45
2019-03-18T16:45:53.562Z,100170.64
2019-03-18T17:18:32.176Z,100212.68
2019-03-18T17:28:58.644Z,100233.61
2019-03-18T17:34:02.107Z,100250.13
2019-03-18T17:39:07.672Z,100262.98
2019-03-18T17:44:11.129Z,100263.74
2019-03-18T17:49:14.593Z,100278.41
2019-03-18T17:54:18.229Z,100283.96
2019-03-18T17:59:21.749Z,100292.66
2019-03-18T18:04:25.204Z,100290.75
2019-03-18T18:09:28.665Z,100291.95
2019-03-18T18:14:32.125Z,100297.31
2019-03-18T18:19:35.591Z,100303.47
2019-03-18T18:24:39.050Z,100320.72
2019-03-18T18:29:42.512Z,100332.42
2019-03-18T18:34:45.981Z,100338.58
2019-03-18T18:39:49.440Z,100349.48
2019-03-18T18:44:52.892Z,100362.77
2019-03-18T18:49:56.587Z,100368.73
2019-03-18T18:55:00.057Z,100373.68
2019-03-18T19:00:05.324Z,100376.87
2019-03-18T19:05:11.421Z,100395.28
2019-03-18T19:10:16.991Z,100402.03
2019-03-18T19:15:32.328Z,100414.11
2019-03-18T19:20:35.788Z,100425.81
2019-03-18T19:25:39.244Z,100430.39
2019-03-18T19:30:42.704Z,100440.10
2019-03-18T19:35:46.165Z,100449.03
2019-03-18T19:40:49.629Z,100461.11
2019-03-18T19:45:53.092Z,100461.11
2019-03-18T19:50:56.548Z,100466.84
2019-03-18T19:56:00.005Z,100466.84
2019-03-18T20:01:03.467Z,100476.56
2019-03-18T20:06:06.920Z,100479.94
2019-03-18T20:11:10.376Z,100478.95
2019-03-18T20:16:13.838Z,100490.84
2019-03-18T20:21:17.297Z,100491.10
2019-03-18T20:26:20.753Z,100508.35
2019-03-18T20:31:25.955Z,100512.92
2019-03-18T20:36:29.404Z,100520.27
2019-03-18T20:41:32.866Z,100526.42
2019-03-18T20:46:36.320Z,100533.95
2019-03-18T20:51:40.015Z,100533.02
2019-03-18T20:56:43.537Z,100546.09
2019-03-18T21:01:47.007Z,100548.50
2019-03-18T21:06:50.466Z,100548.30
2019-03-18T21:11:53.925Z,100551.67
2019-03-18T21:16:57.389Z,100573.09
2019-03-18T21:22:00.853Z,100574.47
2019-03-18T21:27:04.553Z,100576.87
2019-03-18T21:32:08.022Z,100580.27
2019-03-18T21:37:11.478Z,100585.63
2019-03-18T21:42:15.005Z,100602.87
2019-03-18T21:47:18.468Z,100604.67
2019-03-18T21:52:21.960Z,100609.63
2019-03-18T21:57:25.389Z,100611.02
2019-03-18T22:02:28.844Z,100620.72
2019-03-18T22:07:32.313Z,100624.50
2019-03-18T22:12:35.771Z,100628.66
2019-03-18T22:17:39.228Z,100627.28
2019-03-18T22:22:42.761Z,100631.44
2019-03-18T22:27:46.220Z,100627.09
2019-03-18T22:32:49.673Z,100640.96
2019-03-18T22:37:53.136Z,100637.20
2019-03-18T22:42:56.598Z,100646.31
2019-03-18T22:48:00.054Z,100654.64
2019-03-18T22:53:03.510Z,100648.14
2019-03-18T22:58:06.975Z,100651.13
2019-03-18T23:03:10.421Z,100660.05
2019-03-18T23:08:13.877Z,100659.86
2019-03-18T23:13:17.336Z,100663.03
2019-03-18T23:18:20.965Z,100669.62
2019-03-18T23:23:24.422Z,100679.13
2019-03-18T23:28:27.882Z,100678.34
2019-03-18T23:33:31.344Z,100680.92
2019-03-18T23:38:34.804Z,100687.27
2019-03-18T23:43:38.267Z,100689.66
2019-03-18T23:48:41.721Z,100691.23
2019-03-18T23:53:45.181Z,100688.27
2019-03-18T23:58:48.642Z,100687.28
